Prairie Du Chien, Wisconsin
Current Conditions -  °F | °C
As of 6:15 AM on Sunday 23 Nov 2014 (Local Time) from KPDC Reporting Station
Overcast Overcast  
Wind Chill: 51°   Ceiling: 900
Heat Index: 51°   Visibility: 10mi
Dew Point: 48°   Wind: 5mph
Humidity: 90%   Direction: 160°SSE
Pressure: 29.59"   Gusts: NA
Location:  43.05°N, 91.14°W
Report Text: KPDC 231215Z AUTO 16004KT 10SM OVC009 11/09 A2959 RMK AO2 T01050090
Loading
Personal Weather Stations






























Interactive Weather Map New forecast layout! Learn more

10-Day Weather Forecast

Advertisements
Track Severe Weather on mobile